sensor_id;sensor_type;location;lat;lon;timestamp;temperature;humidity
1704;DHT22;849;48.780;9.216;2024-03-02T00:01:33;9.20;99.90
1704;DHT22;849;48.780;9.216;2024-03-02T00:04:17;9.20;99.90
1704;DHT22;849;48.780;9.216;2024-03-02T00:07:01;9.20;99.90
1704;DHT22;849;48.780;9.216;2024-03-02T00:09:45;9.20;99.90
1704;DHT22;849;48.780;9.216;2024-03-02T00:12:30;9.20;99.90
1704;DHT22;849;48.780;9.216;2024-03-02T00:15:40;9.30;99.90
1704;DHT22;849;48.780;9.216;2024-03-02T00:18:26;9.20;99.90
1704;DHT22;849;48.780;9.216;2024-03-02T00:21:11;9.30;99.90
1704;DHT22;849;48.780;9.216;2024-03-02T00:23:57;9.20;99.90
1704;DHT22;849;48.780;9.216;2024-03-02T00:26:44;9.20;99.90
1704;DHT22;849;48.780;9.216;2024-03-02T00:29:29;9.10;99.90
1704;DHT22;849;48.780;9.216;2024-03-02T00:32:14;9.10;99.90
1704;DHT22;849;48.780;9.216;2024-03-02T00:34:59;9.00;99.90
1704;DHT22;849;48.780;9.216;2024-03-02T00:37:43;9.00;99.90
1704;DHT22;849;48.780;9.216;2024-03-02T00:40:29;9.00;99.90
1704;DHT22;849;48.780;9.216;2024-03-02T00:43:38;8.90;99.90
1704;DHT22;849;48.780;9.216;2024-03-02T00:46:24;8.90;99.90
1704;DHT22;849;48.780;9.216;2024-03-02T00:49:22;8.80;99.90
1704;DHT22;849;48.780;9.216;2024-03-02T00:52:07;8.70;99.90
1704;DHT22;849;48.780;9.216;2024-03-02T00:54:51;8.70;99.90
1704;DHT22;849;48.780;9.216;2024-03-02T00:57:35;8.70;99.90
1704;DHT22;849;48.780;9.216;2024-03-02T01:00:20;8.60;99.90
1704;DHT22;849;48.780;9.216;2024-03-02T01:03:04;8.60;99.90
1704;DHT22;849;48.780;9.216;2024-03-02T01:05:48;8.70;99.90
1704;DHT22;849;48.780;9.216;2024-03-02T01:08:37;8.70;99.90
1704;DHT22;849;48.780;9.216;2024-03-02T01:11:21;8.70;99.90
1704;DHT22;849;48.780;9.216;2024-03-02T01:14:08;8.70;99.90
1704;DHT22;849;48.780;9.216;2024-03-02T01:16:52;8.70;99.90
1704;DHT22;849;48.780;9.216;2024-03-02T01:19:36;8.70;99.90
1704;DHT22;849;48.780;9.216;2024-03-02T01:22:23;8.70;99.90
1704;DHT22;849;48.780;9.216;2024-03-02T01:25:09;8.70;99.90
1704;DHT22;849;48.780;9.216;2024-03-02T01:27:53;8.70;99.90
1704;DHT22;849;48.780;9.216;2024-03-02T01:30:37;8.70;99.90
1704;DHT22;849;48.780;9.216;2024-03-02T01:33:21;8.70;99.90
1704;DHT22;849;48.780;9.216;2024-03-02T01:36:05;8.70;99.90
1704;DHT22;849;48.780;9.216;2024-03-02T01:38:49;8.60;99.90
1704;DHT22;849;48.780;9.216;2024-03-02T01:41:34;8.60;99.90
1704;DHT22;849;48.780;9.216;2024-03-02T01:44:18;8.50;99.90
1704;DHT22;849;48.780;9.216;2024-03-02T01:47:02;8.30;99.90
1704;DHT22;849;48.780;9.216;2024-03-02T01:49:46;8.30;99.90
1704;DHT22;849;48.780;9.216;2024-03-02T01:52:30;8.30;99.90
1704;DHT22;849;48.780;9.216;2024-03-02T01:55:14;8.30;99.90
1704;DHT22;849;48.780;9.216;2024-03-02T01:57:59;8.30;99.90
1704;DHT22;849;48.780;9.216;2024-03-02T02:00:44;8.30;99.90
1704;DHT22;849;48.780;9.216;2024-03-02T02:03:29;8.30;99.90
1704;DHT22;849;48.780;9.216;2024-03-02T02:06:13;8.30;99.90
1704;DHT22;849;48.780;9.216;2024-03-02T02:08:57;8.30;99.90
1704;DHT22;849;48.780;9.216;2024-03-02T02:11:41;8.20;99.90
1704;DHT22;849;48.780;9.216;2024-03-02T02:14:25;8.20;99.90
1704;DHT22;849;48.780;9.216;2024-03-02T02:17:09;8.20;99.90
1704;DHT22;849;48.780;9.216;2024-03-02T02:19:53;8.10;99.90
1704;DHT22;849;48.780;9.216;2024-03-02T02:22:37;8.20;99.90
1704;DHT22;849;48.780;9.216;2024-03-02T02:25:21;8.20;99.90
1704;DHT22;849;48.780;9.216;2024-03-02T02:28:05;8.10;99.90
1704;DHT22;849;48.780;9.216;2024-03-02T02:30:50;8.10;99.90
1704;DHT22;849;48.780;9.216;2024-03-02T02:33:34;8.20;99.90
1704;DHT22;849;48.780;9.216;2024-03-02T02:36:23;8.10;99.90
1704;DHT22;849;48.780;9.216;2024-03-02T02:39:10;8.00;99.90
1704;DHT22;849;48.780;9.216;2024-03-02T02:41:55;7.90;99.90
1704;DHT22;849;48.780;9.216;2024-03-02T02:44:40;8.00;99.90
1704;DHT22;849;48.780;9.216;2024-03-02T02:47:25;7.90;99.90
1704;DHT22;849;48.780;9.216;2024-03-02T02:50:11;7.90;99.90
1704;DHT22;849;48.780;9.216;2024-03-02T02:52:55;7.80;99.90
1704;DHT22;849;48.780;9.216;2024-03-02T02:55:40;7.80;99.90
1704;DHT22;849;48.780;9.216;2024-03-02T02:58:27;7.80;99.90
1704;DHT22;849;48.780;9.216;2024-03-02T03:01:11;7.80;99.90
1704;DHT22;849;48.780;9.216;2024-03-02T03:03:55;7.70;99.90
1704;DHT22;849;48.780;9.216;2024-03-02T03:06:39;7.70;99.90
1704;DHT22;849;48.780;9.216;2024-03-02T03:09:23;7.70;99.90
1704;DHT22;849;48.780;9.216;2024-03-02T03:12:08;7.60;99.90
1704;DHT22;849;48.780;9.216;2024-03-02T03:14:52;7.60;99.90
1704;DHT22;849;48.780;9.216;2024-03-02T03:17:36;7.60;99.90
1704;DHT22;849;48.780;9.216;2024-03-02T03:20:21;7.50;99.90
1704;DHT22;849;48.780;9.216;2024-03-02T03:23:07;7.40;99.90
1704;DHT22;849;48.780;9.216;2024-03-02T03:25:51;7.40;99.90
1704;DHT22;849;48.780;9.216;2024-03-02T03:28:35;7.40;99.90
1704;DHT22;849;48.780;9.216;2024-03-02T03:31:19;7.40;99.90
1704;DHT22;849;48.780;9.216;2024-03-02T03:34:03;7.40;99.90
1704;DHT22;849;48.780;9.216;2024-03-02T03:36:47;7.40;99.90
1704;DHT22;849;48.780;9.216;2024-03-02T03:39:32;7.40;99.90
1704;DHT22;849;48.780;9.216;2024-03-02T03:42:17;7.40;99.90
1704;DHT22;849;48.780;9.216;2024-03-02T03:45:02;7.40;99.90
1704;DHT22;849;48.780;9.216;2024-03-02T03:47:46;7.30;99.90
1704;DHT22;849;48.780;9.216;2024-03-02T03:50:31;7.30;99.90
1704;DHT22;849;48.780;9.216;2024-03-02T03:53:15;7.30;99.90
1704;DHT22;849;48.780;9.216;2024-03-02T03:55:59;7.30;99.90
1704;DHT22;849;48.780;9.216;2024-03-02T03:58:43;7.20;99.90
1704;DHT22;849;48.780;9.216;2024-03-02T04:01:27;7.20;99.90
1704;DHT22;849;48.780;9.216;2024-03-02T04:04:12;7.20;99.90
1704;DHT22;849;48.780;9.216;2024-03-02T04:06:56;7.10;99.90
1704;DHT22;849;48.780;9.216;2024-03-02T04:09:40;7.10;99.90
1704;DHT22;849;48.780;9.216;2024-03-02T04:12:25;7.10;99.90
1704;DHT22;849;48.780;9.216;2024-03-02T04:15:09;7.10;99.90
1704;DHT22;849;48.780;9.216;2024-03-02T04:17:53;7.10;99.90
1704;DHT22;849;48.780;9.216;2024-03-02T04:20:37;7.10;99.90
1704;DHT22;849;48.780;9.216;2024-03-02T04:23:21;7.10;99.90
1704;DHT22;849;48.780;9.216;2024-03-02T04:26:06;7.10;99.90
1704;DHT22;849;48.780;9.216;2024-03-02T04:28:50;7.10;99.90
1704;DHT22;849;48.780;9.216;2024-03-02T04:31:34;7.10;99.90
1704;DHT22;849;48.780;9.216;2024-03-02T04:34:18;7.10;99.90
1704;DHT22;849;48.780;9.216;2024-03-02T04:37:03;7.10;99.90
1704;DHT22;849;48.780;9.216;2024-03-02T04:39:47;7.00;99.90
1704;DHT22;849;48.780;9.216;2024-03-02T04:42:31;7.00;99.90
1704;DHT22;849;48.780;9.216;2024-03-02T04:45:15;7.00;99.90
1704;DHT22;849;48.780;9.216;2024-03-02T04:48:00;7.00;99.90
1704;DHT22;849;48.780;9.216;2024-03-02T04:50:44;7.00;99.90
1704;DHT22;849;48.780;9.216;2024-03-02T04:53:28;7.00;99.90
1704;DHT22;849;48.780;9.216;2024-03-02T04:56:12;7.00;99.90
1704;DHT22;849;48.780;9.216;2024-03-02T04:59:15;7.00;99.90
1704;DHT22;849;48.780;9.216;2024-03-02T05:02:00;7.20;99.90
1704;DHT22;849;48.780;9.216;2024-03-02T05:04:44;6.90;99.90
1704;DHT22;849;48.780;9.216;2024-03-02T05:07:29;6.90;99.90
1704;DHT22;849;48.780;9.216;2024-03-02T05:10:13;6.90;99.90
1704;DHT22;849;48.780;9.216;2024-03-02T05:12:57;6.90;99.90
1704;DHT22;849;48.780;9.216;2024-03-02T05:15:42;6.90;99.90
1704;DHT22;849;48.780;9.216;2024-03-02T05:18:27;6.90;99.90
1704;DHT22;849;48.780;9.216;2024-03-02T05:21:11;6.90;99.90
1704;DHT22;849;48.780;9.216;2024-03-02T05:23:55;6.80;99.90
1704;DHT22;849;48.780;9.216;2024-03-02T05:26:40;6.80;99.90
1704;DHT22;849;48.780;9.216;2024-03-02T05:29:24;6.80;99.90
1704;DHT22;849;48.780;9.216;2024-03-02T05:32:08;6.80;99.90
1704;DHT22;849;48.780;9.216;2024-03-02T05:34:52;6.80;99.90
1704;DHT22;849;48.780;9.216;2024-03-02T05:37:36;6.70;99.90
1704;DHT22;849;48.780;9.216;2024-03-02T05:40:21;6.70;99.90
1704;DHT22;849;48.780;9.216;2024-03-02T05:43:05;6.70;99.90
1704;DHT22;849;48.780;9.216;2024-03-02T05:45:49;6.70;99.90
1704;DHT22;849;48.780;9.216;2024-03-02T05:48:33;6.70;99.90
1704;DHT22;849;48.780;9.216;2024-03-02T05:51:18;6.70;99.90
1704;DHT22;849;48.780;9.216;2024-03-02T05:54:02;6.60;99.90
1704;DHT22;849;48.780;9.216;2024-03-02T05:56:46;6.60;99.90
1704;DHT22;849;48.780;9.216;2024-03-02T05:59:31;6.60;99.90
1704;DHT22;849;48.780;9.216;2024-03-02T06:02:15;6.70;99.90
1704;DHT22;849;48.780;9.216;2024-03-02T06:04:59;6.60;99.90
1704;DHT22;849;48.780;9.216;2024-03-02T06:07:44;6.60;99.90
1704;DHT22;849;48.780;9.216;2024-03-02T06:10:28;6.60;99.90
1704;DHT22;849;48.780;9.216;2024-03-02T06:13:12;6.60;99.90
1704;DHT22;849;48.780;9.216;2024-03-02T06:15:56;6.60;99.90
1704;DHT22;849;48.780;9.216;2024-03-02T06:18:40;6.60;99.90
1704;DHT22;849;48.780;9.216;2024-03-02T06:21:25;6.60;99.90
1704;DHT22;849;48.780;9.216;2024-03-02T06:24:09;6.60;99.90
1704;DHT22;849;48.780;9.216;2024-03-02T06:26:53;6.60;99.90
1704;DHT22;849;48.780;9.216;2024-03-02T06:29:37;6.60;99.90
1704;DHT22;849;48.780;9.216;2024-03-02T06:32:21;6.70;99.90
1704;DHT22;849;48.780;9.216;2024-03-02T06:35:06;6.60;99.90
1704;DHT22;849;48.780;9.216;2024-03-02T06:37:54;6.60;99.90
1704;DHT22;849;48.780;9.216;2024-03-02T06:40:38;6.70;99.90
1704;DHT22;849;48.780;9.216;2024-03-02T06:43:23;6.70;99.90
1704;DHT22;849;48.780;9.216;2024-03-02T06:46:07;6.70;99.90
1704;DHT22;849;48.780;9.216;2024-03-02T06:48:53;6.80;99.90
1704;DHT22;849;48.780;9.216;2024-03-02T06:51:37;6.80;99.90
1704;DHT22;849;48.780;9.216;2024-03-02T06:54:21;6.80;99.90
1704;DHT22;849;48.780;9.216;2024-03-02T06:57:06;6.90;99.90
1704;DHT22;849;48.780;9.216;2024-03-02T06:59:50;7.00;99.90
1704;DHT22;849;48.780;9.216;2024-03-02T07:02:35;7.00;99.90
1704;DHT22;849;48.780;9.216;2024-03-02T07:05:20;7.10;99.90
1704;DHT22;849;48.780;9.216;2024-03-02T07:08:05;7.10;99.90
1704;DHT22;849;48.780;9.216;2024-03-02T07:10:50;7.10;99.90
1704;DHT22;849;48.780;9.216;2024-03-02T07:13:34;7.10;99.90
1704;DHT22;849;48.780;9.216;2024-03-02T07:16:19;7.20;99.90
1704;DHT22;849;48.780;9.216;2024-03-02T07:19:12;7.20;99.90
1704;DHT22;849;48.780;9.216;2024-03-02T07:21:56;7.20;99.90
1704;DHT22;849;48.780;9.216;2024-03-02T07:24:41;7.20;99.90
1704;DHT22;849;48.780;9.216;2024-03-02T07:27:25;7.30;99.90
1704;DHT22;849;48.780;9.216;2024-03-02T07:30:09;7.40;99.90
1704;DHT22;849;48.780;9.216;2024-03-02T07:32:55;7.50;99.90
1704;DHT22;849;48.780;9.216;2024-03-02T07:35:39;7.50;99.90
1704;DHT22;849;48.780;9.216;2024-03-02T07:38:23;7.60;99.90
1704;DHT22;849;48.780;9.216;2024-03-02T07:41:09;7.60;99.90
1704;DHT22;849;48.780;9.216;2024-03-02T07:43:53;7.80;99.90
1704;DHT22;849;48.780;9.216;2024-03-02T07:46:37;7.80;99.90
1704;DHT22;849;48.780;9.216;2024-03-02T07:49:21;7.90;99.90
1704;DHT22;849;48.780;9.216;2024-03-02T07:52:05;8.00;99.90
1704;DHT22;849;48.780;9.216;2024-03-02T07:54:49;8.00;99.90
1704;DHT22;849;48.780;9.216;2024-03-02T07:57:33;8.10;99.90
1704;DHT22;849;48.780;9.216;2024-03-02T08:00:17;8.10;99.90
1704;DHT22;849;48.780;9.216;2024-03-02T08:03:02;8.10;99.90
1704;DHT22;849;48.780;9.216;2024-03-02T08:05:46;8.20;99.90
1704;DHT22;849;48.780;9.216;2024-03-02T08:08:30;8.20;99.90
1704;DHT22;849;48.780;9.216;2024-03-02T08:11:14;8.30;99.90
1704;DHT22;849;48.780;9.216;2024-03-02T08:13:58;8.30;99.90
1704;DHT22;849;48.780;9.216;2024-03-02T08:16:43;8.40;99.90
1704;DHT22;849;48.780;9.216;2024-03-02T08:19:27;8.40;99.90
1704;DHT22;849;48.780;9.216;2024-03-02T08:22:11;8.40;99.90
1704;DHT22;849;48.780;9.216;2024-03-02T08:24:56;8.50;99.90
1704;DHT22;849;48.780;9.216;2024-03-02T08:27:40;8.50;99.90
1704;DHT22;849;48.780;9.216;2024-03-02T08:30:24;8.50;99.90
1704;DHT22;849;48.780;9.216;2024-03-02T08:33:08;8.50;99.90
1704;DHT22;849;48.780;9.216;2024-03-02T08:35:52;8.50;99.90
1704;DHT22;849;48.780;9.216;2024-03-02T08:38:36;8.50;99.90
1704;DHT22;849;48.780;9.216;2024-03-02T08:41:20;8.60;99.90
1704;DHT22;849;48.780;9.216;2024-03-02T08:44:04;8.60;99.90
1704;DHT22;849;48.780;9.216;2024-03-02T08:46:48;8.70;99.90
1704;DHT22;849;48.780;9.216;2024-03-02T08:49:32;8.80;99.90
1704;DHT22;849;48.780;9.216;2024-03-02T08:52:17;8.70;99.90
1704;DHT22;849;48.780;9.216;2024-03-02T08:55:01;8.70;99.90
1704;DHT22;849;48.780;9.216;2024-03-02T08:57:45;8.80;99.90
1704;DHT22;849;48.780;9.216;2024-03-02T09:00:30;8.90;99.90
1704;DHT22;849;48.780;9.216;2024-03-02T09:03:14;9.00;99.90
1704;DHT22;849;48.780;9.216;2024-03-02T09:05:59;9.10;99.90
1704;DHT22;849;48.780;9.216;2024-03-02T09:08:43;9.20;99.90
1704;DHT22;849;48.780;9.216;2024-03-02T09:11:28;9.30;99.90
1704;DHT22;849;48.780;9.216;2024-03-02T09:14:12;9.30;99.90
1704;DHT22;849;48.780;9.216;2024-03-02T09:16:56;9.40;99.90
1704;DHT22;849;48.780;9.216;2024-03-02T09:19:40;9.40;99.90
1704;DHT22;849;48.780;9.216;2024-03-02T09:22:25;9.50;99.90
1704;DHT22;849;48.780;9.216;2024-03-02T09:25:09;9.50;99.90
1704;DHT22;849;48.780;9.216;2024-03-02T09:27:53;9.70;99.90
1704;DHT22;849;48.780;9.216;2024-03-02T09:30:37;9.70;99.90
1704;DHT22;849;48.780;9.216;2024-03-02T09:33:21;9.80;99.90
1704;DHT22;849;48.780;9.216;2024-03-02T09:36:05;9.90;99.90
1704;DHT22;849;48.780;9.216;2024-03-02T09:38:49;10.00;99.90
1704;DHT22;849;48.780;9.216;2024-03-02T09:41:34;10.10;99.90
1704;DHT22;849;48.780;9.216;2024-03-02T09:44:18;10.20;99.90
1704;DHT22;849;48.780;9.216;2024-03-02T09:47:03;10.30;99.90
1704;DHT22;849;48.780;9.216;2024-03-02T09:49:49;10.30;99.90
1704;DHT22;849;48.780;9.216;2024-03-02T09:52:33;10.40;99.90
1704;DHT22;849;48.780;9.216;2024-03-02T09:55:18;10.50;99.90
1704;DHT22;849;48.780;9.216;2024-03-02T09:58:03;10.60;99.90
1704;DHT22;849;48.780;9.216;2024-03-02T10:00:47;10.60;99.90
1704;DHT22;849;48.780;9.216;2024-03-02T10:03:33;10.70;99.90
1704;DHT22;849;48.780;9.216;2024-03-02T10:06:25;10.80;99.90
1704;DHT22;849;48.780;9.216;2024-03-02T10:09:09;11.10;99.90
1704;DHT22;849;48.780;9.216;2024-03-02T10:11:53;11.50;99.90
1704;DHT22;849;48.780;9.216;2024-03-02T10:14:39;11.00;99.90
1704;DHT22;849;48.780;9.216;2024-03-02T10:17:23;11.40;99.90
1704;DHT22;849;48.780;9.216;2024-03-02T10:20:24;11.20;99.90
1704;DHT22;849;48.780;9.216;2024-03-02T10:23:14;11.30;99.90
1704;DHT22;849;48.780;9.216;2024-03-02T10:25:59;11.30;99.90
1704;DHT22;849;48.780;9.216;2024-03-02T10:28:47;11.40;99.90
1704;DHT22;849;48.780;9.216;2024-03-02T10:31:45;11.40;99.90
1704;DHT22;849;48.780;9.216;2024-03-02T10:34:32;11.50;99.90
1704;DHT22;849;48.780;9.216;2024-03-02T10:37:17;11.50;99.90
1704;DHT22;849;48.780;9.216;2024-03-02T10:40:05;11.80;99.90
1704;DHT22;849;48.780;9.216;2024-03-02T10:42:50;11.70;99.90
1704;DHT22;849;48.780;9.216;2024-03-02T10:45:35;11.80;99.90
1704;DHT22;849;48.780;9.216;2024-03-02T10:48:19;11.80;99.90
1704;DHT22;849;48.780;9.216;2024-03-02T10:51:05;11.80;99.90
1704;DHT22;849;48.780;9.216;2024-03-02T10:53:49;11.90;99.90
1704;DHT22;849;48.780;9.216;2024-03-02T10:56:34;12.00;99.90
1704;DHT22;849;48.780;9.216;2024-03-02T11:02:13;12.20;99.90
1704;DHT22;849;48.780;9.216;2024-03-02T11:05:00;12.20;99.90
1704;DHT22;849;48.780;9.216;2024-03-02T11:07:46;12.30;99.90
1704;DHT22;849;48.780;9.216;2024-03-02T11:10:35;12.40;99.90
1704;DHT22;849;48.780;9.216;2024-03-02T11:13:34;12.40;99.90
1704;DHT22;849;48.780;9.216;2024-03-02T11:16:33;12.40;99.90
1704;DHT22;849;48.780;9.216;2024-03-02T11:19:21;12.50;99.90
1704;DHT22;849;48.780;9.216;2024-03-02T11:22:06;12.60;99.90
1704;DHT22;849;48.780;9.216;2024-03-02T11:24:52;12.60;99.90
1704;DHT22;849;48.780;9.216;2024-03-02T11:33:23;12.70;98.60
1704;DHT22;849;48.780;9.216;2024-03-02T11:36:08;12.80;98.60
1704;DHT22;849;48.780;9.216;2024-03-02T11:38:52;12.90;98.60
1704;DHT22;849;48.780;9.216;2024-03-02T11:41:37;12.90;98.50
1704;DHT22;849;48.780;9.216;2024-03-02T11:44:21;13.00;96.70
1704;DHT22;849;48.780;9.216;2024-03-02T11:47:08;13.10;96.50
1704;DHT22;849;48.780;9.216;2024-03-02T11:49:52;13.10;96.00
1704;DHT22;849;48.780;9.216;2024-03-02T11:52:38;13.20;95.90
1704;DHT22;849;48.780;9.216;2024-03-02T11:55:25;13.20;95.20
1704;DHT22;849;48.780;9.216;2024-03-02T11:58:09;13.30;93.90
1704;DHT22;849;48.780;9.216;2024-03-02T12:00:54;13.40;92.90
1704;DHT22;849;48.780;9.216;2024-03-02T12:03:39;13.40;92.40
1704;DHT22;849;48.780;9.216;2024-03-02T12:06:24;13.50;91.10
1704;DHT22;849;48.780;9.216;2024-03-02T12:09:10;13.60;90.00
1704;DHT22;849;48.780;9.216;2024-03-02T12:12:16;13.60;87.50
1704;DHT22;849;48.780;9.216;2024-03-02T12:15:05;13.90;87.40
1704;DHT22;849;48.780;9.216;2024-03-02T12:17:53;13.80;87.30
1704;DHT22;849;48.780;9.216;2024-03-02T12:20:37;13.90;84.60
1704;DHT22;849;48.780;9.216;2024-03-02T12:23:21;14.00;85.30
1704;DHT22;849;48.780;9.216;2024-03-02T12:26:06;14.00;85.60
1704;DHT22;849;48.780;9.216;2024-03-02T12:28:51;14.10;84.10
1704;DHT22;849;48.780;9.216;2024-03-02T12:31:35;14.10;83.80
1704;DHT22;849;48.780;9.216;2024-03-02T12:34:21;14.20;84.20
1704;DHT22;849;48.780;9.216;2024-03-02T12:37:06;14.30;83.80
1704;DHT22;849;48.780;9.216;2024-03-02T12:39:50;14.20;82.00
1704;DHT22;849;48.780;9.216;2024-03-02T12:42:34;14.30;81.30
1704;DHT22;849;48.780;9.216;2024-03-02T12:45:19;14.40;82.10
1704;DHT22;849;48.780;9.216;2024-03-02T12:48:07;14.40;82.00
1704;DHT22;849;48.780;9.216;2024-03-02T12:50:52;14.50;79.80
1704;DHT22;849;48.780;9.216;2024-03-02T12:53:36;14.50;80.60
1704;DHT22;849;48.780;9.216;2024-03-02T12:56:20;14.50;77.30
1704;DHT22;849;48.780;9.216;2024-03-02T12:59:04;14.60;75.50
1704;DHT22;849;48.780;9.216;2024-03-02T13:01:55;14.60;75.30
1704;DHT22;849;48.780;9.216;2024-03-02T13:04:43;14.70;75.80
1704;DHT22;849;48.780;9.216;2024-03-02T13:07:27;14.80;76.60
1704;DHT22;849;48.780;9.216;2024-03-02T13:10:12;14.80;74.00
1704;DHT22;849;48.780;9.216;2024-03-02T13:12:56;14.90;73.00
1704;DHT22;849;48.780;9.216;2024-03-02T13:15:41;14.90;72.50
1704;DHT22;849;48.780;9.216;2024-03-02T13:18:28;14.90;71.20
1704;DHT22;849;48.780;9.216;2024-03-02T13:21:12;14.80;70.90
1704;DHT22;849;48.780;9.216;2024-03-02T13:23:56;14.90;71.10
1704;DHT22;849;48.780;9.216;2024-03-02T13:26:40;15.30;70.90
1704;DHT22;849;48.780;9.216;2024-03-02T13:29:25;15.50;72.40
1704;DHT22;849;48.780;9.216;2024-03-02T13:32:09;15.10;71.90
1704;DHT22;849;48.780;9.216;2024-03-02T13:34:54;15.10;70.00
1704;DHT22;849;48.780;9.216;2024-03-02T13:37:38;15.20;70.60
1704;DHT22;849;48.780;9.216;2024-03-02T13:40:22;15.30;70.30
1704;DHT22;849;48.780;9.216;2024-03-02T13:43:07;15.30;70.00
1704;DHT22;849;48.780;9.216;2024-03-02T13:45:52;15.60;70.00
1704;DHT22;849;48.780;9.216;2024-03-02T13:48:37;15.30;69.50
1704;DHT22;849;48.780;9.216;2024-03-02T13:51:21;15.30;68.60
1704;DHT22;849;48.780;9.216;2024-03-02T13:54:05;15.40;66.80
1704;DHT22;849;48.780;9.216;2024-03-02T13:56:49;15.40;67.50
1704;DHT22;849;48.780;9.216;2024-03-02T13:59:34;15.40;67.90
1704;DHT22;849;48.780;9.216;2024-03-02T14:02:19;15.40;66.30
1704;DHT22;849;48.780;9.216;2024-03-02T14:05:03;15.40;67.20
1704;DHT22;849;48.780;9.216;2024-03-02T14:07:48;15.50;66.60
1704;DHT22;849;48.780;9.216;2024-03-02T14:10:32;15.50;65.70
1704;DHT22;849;48.780;9.216;2024-03-02T14:13:16;15.50;66.10
1704;DHT22;849;48.780;9.216;2024-03-02T14:16:00;15.50;66.50
1704;DHT22;849;48.780;9.216;2024-03-02T14:18:44;15.70;66.00
1704;DHT22;849;48.780;9.216;2024-03-02T14:21:28;15.70;66.10
1704;DHT22;849;48.780;9.216;2024-03-02T14:24:12;16.10;66.50
1704;DHT22;849;48.780;9.216;2024-03-02T14:26:56;15.70;65.70
1704;DHT22;849;48.780;9.216;2024-03-02T14:29:42;15.50;63.10
1704;DHT22;849;48.780;9.216;2024-03-02T14:32:27;15.50;63.70
1704;DHT22;849;48.780;9.216;2024-03-02T14:35:11;15.60;64.60
1704;DHT22;849;48.780;9.216;2024-03-02T14:37:55;15.60;64.50
1704;DHT22;849;48.780;9.216;2024-03-02T14:40:41;15.70;65.20
1704;DHT22;849;48.780;9.216;2024-03-02T14:43:27;16.00;63.60
1704;DHT22;849;48.780;9.216;2024-03-02T14:46:12;15.70;62.60
1704;DHT22;849;48.780;9.216;2024-03-02T14:48:56;15.70;62.10
1704;DHT22;849;48.780;9.216;2024-03-02T14:51:40;15.70;61.50
1704;DHT22;849;48.780;9.216;2024-03-02T14:54:25;15.70;61.10
1704;DHT22;849;48.780;9.216;2024-03-02T14:57:09;15.70;60.80
1704;DHT22;849;48.780;9.216;2024-03-02T14:59:54;15.70;60.00
1704;DHT22;849;48.780;9.216;2024-03-02T15:02:39;15.70;59.60
1704;DHT22;849;48.780;9.216;2024-03-02T15:05:23;15.80;60.20
1704;DHT22;849;48.780;9.216;2024-03-02T15:08:10;15.90;59.40
1704;DHT22;849;48.780;9.216;2024-03-02T15:10:55;15.90;59.10
1704;DHT22;849;48.780;9.216;2024-03-02T15:13:40;16.30;59.30
1704;DHT22;849;48.780;9.216;2024-03-02T15:16:24;16.40;58.90
1704;DHT22;849;48.780;9.216;2024-03-02T15:19:08;16.10;57.90
1704;DHT22;849;48.780;9.216;2024-03-02T15:21:52;16.10;58.10
1704;DHT22;849;48.780;9.216;2024-03-02T15:24:36;16.20;58.50
1704;DHT22;849;48.780;9.216;2024-03-02T15:27:20;16.20;58.30
1704;DHT22;849;48.780;9.216;2024-03-02T15:30:05;16.10;58.20
1704;DHT22;849;48.780;9.216;2024-03-02T15:32:50;16.10;58.70
1704;DHT22;849;48.780;9.216;2024-03-02T15:35:35;16.10;59.00
1704;DHT22;849;48.780;9.216;2024-03-02T15:38:19;16.00;59.40
1704;DHT22;849;48.780;9.216;2024-03-02T15:41:04;16.00;58.90
1704;DHT22;849;48.780;9.216;2024-03-02T15:43:49;16.00;58.90
1704;DHT22;849;48.780;9.216;2024-03-02T15:46:33;15.90;58.80
1704;DHT22;849;48.780;9.216;2024-03-02T15:49:17;15.80;58.60
1704;DHT22;849;48.780;9.216;2024-03-02T15:52:01;15.80;58.70
1704;DHT22;849;48.780;9.216;2024-03-02T15:54:50;15.70;58.80
1704;DHT22;849;48.780;9.216;2024-03-02T15:57:34;15.70;59.00
1704;DHT22;849;48.780;9.216;2024-03-02T16:00:19;15.70;59.60
1704;DHT22;849;48.780;9.216;2024-03-02T16:03:03;15.60;59.50
1704;DHT22;849;48.780;9.216;2024-03-02T16:05:47;15.60;59.70
1704;DHT22;849;48.780;9.216;2024-03-02T16:08:32;15.50;59.80
1704;DHT22;849;48.780;9.216;2024-03-02T16:11:16;15.40;60.00
1704;DHT22;849;48.780;9.216;2024-03-02T16:14:00;15.50;60.10
1704;DHT22;849;48.780;9.216;2024-03-02T16:16:45;15.30;60.40
1704;DHT22;849;48.780;9.216;2024-03-02T16:19:29;15.30;62.00
1704;DHT22;849;48.780;9.216;2024-03-02T16:22:13;15.20;62.90
1704;DHT22;849;48.780;9.216;2024-03-02T16:24:57;15.10;63.30
1704;DHT22;849;48.780;9.216;2024-03-02T16:27:41;15.00;65.00
1704;DHT22;849;48.780;9.216;2024-03-02T16:30:26;14.90;65.80
1704;DHT22;849;48.780;9.216;2024-03-02T16:33:10;14.80;66.60
1704;DHT22;849;48.780;9.216;2024-03-02T16:35:54;14.80;67.10
1704;DHT22;849;48.780;9.216;2024-03-02T16:38:38;14.70;67.90
1704;DHT22;849;48.780;9.216;2024-03-02T16:41:24;15.10;70.20
1704;DHT22;849;48.780;9.216;2024-03-02T16:44:13;14.60;71.30
1704;DHT22;849;48.780;9.216;2024-03-02T16:46:58;14.50;71.70
1704;DHT22;849;48.780;9.216;2024-03-02T16:49:45;14.40;72.10
1704;DHT22;849;48.780;9.216;2024-03-02T16:52:29;14.30;72.50
1704;DHT22;849;48.780;9.216;2024-03-02T16:55:13;14.20;72.80
1704;DHT22;849;48.780;9.216;2024-03-02T16:57:58;14.10;74.90
1704;DHT22;849;48.780;9.216;2024-03-02T17:00:42;14.00;75.60
1704;DHT22;849;48.780;9.216;2024-03-02T17:03:26;14.00;75.50
1704;DHT22;849;48.780;9.216;2024-03-02T17:06:10;13.90;77.90
1704;DHT22;849;48.780;9.216;2024-03-02T17:08:54;13.90;77.20
1704;DHT22;849;48.780;9.216;2024-03-02T17:11:39;13.80;77.70
1704;DHT22;849;48.780;9.216;2024-03-02T17:14:23;13.80;79.00
1704;DHT22;849;48.780;9.216;2024-03-02T17:17:08;13.90;79.60
1704;DHT22;849;48.780;9.216;2024-03-02T17:19:52;13.60;79.90
1704;DHT22;849;48.780;9.216;2024-03-02T17:22:36;13.60;81.20
1704;DHT22;849;48.780;9.216;2024-03-02T17:25:20;13.60;81.90
1704;DHT22;849;48.780;9.216;2024-03-02T17:28:25;13.50;82.30
1704;DHT22;849;48.780;9.216;2024-03-02T17:31:09;13.50;83.90
1704;DHT22;849;48.780;9.216;2024-03-02T17:33:53;13.40;84.40
1704;DHT22;849;48.780;9.216;2024-03-02T17:36:37;13.40;84.90
1704;DHT22;849;48.780;9.216;2024-03-02T17:39:21;13.30;86.00
1704;DHT22;849;48.780;9.216;2024-03-02T17:42:06;13.30;86.60
1704;DHT22;849;48.780;9.216;2024-03-02T17:44:50;13.20;87.20
1704;DHT22;849;48.780;9.216;2024-03-02T17:47:34;13.20;88.50
1704;DHT22;849;48.780;9.216;2024-03-02T17:50:18;13.20;89.80
1704;DHT22;849;48.780;9.216;2024-03-02T17:53:02;13.20;90.50
1704;DHT22;849;48.780;9.216;2024-03-02T17:55:46;13.20;91.30
1704;DHT22;849;48.780;9.216;2024-03-02T17:58:30;13.20;91.70
1704;DHT22;849;48.780;9.216;2024-03-02T18:01:16;13.20;92.10
1704;DHT22;849;48.780;9.216;2024-03-02T18:04:01;13.20;92.80
1704;DHT22;849;48.780;9.216;2024-03-02T18:06:45;13.20;93.30
1704;DHT22;849;48.780;9.216;2024-03-02T18:09:29;13.30;94.00
1704;DHT22;849;48.780;9.216;2024-03-02T18:12:13;13.30;94.50
1704;DHT22;849;48.780;9.216;2024-03-02T18:14:58;13.30;95.00
1704;DHT22;849;48.780;9.216;2024-03-02T18:17:42;13.30;95.40
1704;DHT22;849;48.780;9.216;2024-03-02T18:20:26;13.30;95.90
1704;DHT22;849;48.780;9.216;2024-03-02T18:23:10;13.40;96.20
1704;DHT22;849;48.780;9.216;2024-03-02T18:25:55;13.40;96.50
1704;DHT22;849;48.780;9.216;2024-03-02T18:28:39;13.40;96.70
1704;DHT22;849;48.780;9.216;2024-03-02T18:31:25;13.40;96.80
1704;DHT22;849;48.780;9.216;2024-03-02T18:34:09;13.50;96.90